Time;durP1;ratioP1;P1;durP2;ratioP2;P2;SDS_P1;SDS_P2;PMS_P1;PMS_P2;Temp;Humidity;BMP_temperature;BMP_pressure;BME280_temperature;BME280_humidity;BME280_pressure;Samples;Min_cycle;Max_cycle;Signal;HPM_P1;HPM_P2
2022/05/12 00:00:19;;;;;;;8.13;5.88;;;;;;;22.80;41.66;100089.09;5078070;28;20091;-69
2022/05/12 00:02:46;;;;;;;8.93;5.88;;;;;;;22.67;41.67;100075.84;5076281;28;20471;-69
2022/05/12 00:05:13;;;;;;;11.77;6.00;;;;;;;22.69;41.68;100065.47;5077099;28;20054;-69
2022/05/12 00:07:44;;;;;;;13.48;6.05;;;;;;;22.49;41.98;100051.56;5078080;28;20104;-69
2022/05/12 00:10:14;;;;;;;11.00;6.65;;;;;;;22.70;41.63;100058.91;5063734;28;20045;-69
2022/05/12 00:12:41;;;;;;;13.35;6.47;;;;;;;22.56;41.50;100063.13;5073968;28;20052;-68
2022/05/12 00:15:12;;;;;;;11.23;6.28;;;;;;;22.51;41.61;100069.38;5077157;28;20049;-69
2022/05/12 00:17:39;;;;;;;8.43;5.97;;;;;;;22.53;41.52;100069.97;5054787;28;20067;-68
2022/05/12 00:20:07;;;;;;;10.40;5.88;;;;;;;22.62;41.58;100064.84;5075341;28;20481;-68
2022/05/12 00:22:33;;;;;;;7.07;5.72;;;;;;;22.64;41.90;100064.59;5076103;28;20052;-69
2022/05/12 00:25:00;;;;;;;14.05;6.30;;;;;;;22.66;41.87;100044.09;5077023;28;20048;-69
2022/05/12 00:27:27;;;;;;;8.88;5.78;;;;;;;22.59;41.76;100037.19;5064580;28;20060;-69
2022/05/12 00:29:53;;;;;;;8.63;5.82;;;;;;;22.58;41.49;100041.03;5074516;28;20500;-68
2022/05/12 00:32:20;;;;;;;11.05;5.82;;;;;;;22.39;41.71;100040.47;5074902;28;20041;-68
2022/05/12 00:34:46;;;;;;;10.05;5.78;;;;;;;22.28;41.87;100051.28;5074493;28;20121;-68
2022/05/12 00:37:13;;;;;;;11.38;6.30;;;;;;;22.51;41.20;100043.97;5074837;28;20072;-68
2022/05/12 00:39:39;;;;;;;10.35;5.82;;;;;;;22.52;41.09;100042.88;5075532;28;20458;-69
2022/05/12 00:42:06;;;;;;;8.13;5.40;;;;;;;22.03;42.12;100045.50;5073994;28;20460;-69
2022/05/12 00:44:32;;;;;;;9.95;6.18;;;;;;;22.00;42.29;100054.22;5075905;28;20434;-69
2022/05/12 00:46:59;;;;;;;11.27;6.30;;;;;;;22.35;41.36;100059.31;5075669;28;20144;-69
2022/05/12 00:49:33;;;;;;;13.13;5.50;;;;;;;22.41;41.07;100044.63;5076041;28;20400;-69
2022/05/12 00:52:16;;;;;;;10.05;5.20;;;;;;;22.48;40.88;100039.81;5074770;28;20053;-69
2022/05/12 00:54:47;;;;;;;11.20;5.63;;;;;;;22.26;41.33;100039.81;5072414;28;20058;-69
2022/05/12 00:57:24;;;;;;;10.40;5.68;;;;;;;22.25;41.34;100045.50;5074077;28;20075;-69
2022/05/12 00:59:51;;;;;;;9.82;4.88;;;;;;;22.33;41.36;100043.16;5057554;28;20068;-69
2022/05/12 01:02:19;;;;;;;11.88;5.68;;;;;;;22.27;41.08;100046.91;5071150;28;20123;-69
2022/05/12 01:04:48;;;;;;;6.82;5.20;;;;;;;21.96;41.84;100034.78;5075278;28;20044;-69
2022/05/12 01:07:15;;;;;;;14.60;5.38;;;;;;;22.11;41.83;100042.34;5076828;28;20048;-68
2022/05/12 01:09:42;;;;;;;11.88;5.30;;;;;;;21.63;42.78;100046.53;5075701;28;20135;-68
2022/05/12 01:12:10;;;;;;;11.45;5.85;;;;;;;21.81;42.45;100051.78;5059501;28;20056;-68
2022/05/12 01:14:36;;;;;;;8.50;5.60;;;;;;;21.40;43.63;100058.47;5075778;28;20552;-68
2022/05/12 01:17:03;;;;;;;14.13;5.65;;;;;;;21.93;42.42;100064.50;5073189;28;20131;-69
2022/05/12 01:19:33;;;;;;;10.00;5.85;;;;;;;22.24;41.78;100066.53;5077237;28;20052;-69
2022/05/12 01:22:02;;;;;;;8.55;5.95;;;;;;;22.12;42.37;100086.84;5076045;28;20132;-68
2022/05/12 01:24:38;;;;;;;12.60;5.75;;;;;;;22.38;41.99;100088.84;5076062;28;20045;-68
2022/05/12 01:27:19;;;;;;;9.45;5.25;;;;;;;22.39;41.69;100101.44;5073835;28;20068;-68
2022/05/12 01:29:47;;;;;;;7.78;5.68;;;;;;;21.58;43.60;100155.66;5072554;28;20447;-68
2022/05/12 01:32:14;;;;;;;8.00;5.75;;;;;;;22.17;42.27;100155.25;5051738;28;20111;-69
2022/05/12 01:34:41;;;;;;;17.05;7.38;;;;;;;21.96;43.89;100156.84;5076630;28;20068;-68
2022/05/12 01:37:08;;;;;;;26.50;8.48;;;;;;;21.24;46.44;100141.94;5075456;28;20044;-69
2022/05/12 01:39:35;;;;;;;14.63;6.60;;;;;;;21.24;46.34;100152.88;5075327;28;20079;-68
2022/05/12 01:42:06;;;;;;;13.05;6.75;;;;;;;21.45;45.30;100131.41;5075082;28;20050;-68
2022/05/12 01:44:34;;;;;;;10.03;6.00;;;;;;;21.24;45.41;100131.03;5077316;28;20111;-69
2022/05/12 01:47:00;;;;;;;17.17;6.63;;;;;;;21.34;45.54;100144.88;5074860;28;20048;-69
2022/05/12 01:49:27;;;;;;;9.05;6.18;;;;;;;21.44;44.79;100152.41;5074245;28;20075;-68
2022/05/12 01:51:55;;;;;;;12.32;5.60;;;;;;;21.29;45.32;100157.59;5065389;28;20475;-68
2022/05/12 01:54:23;;;;;;;7.53;5.60;;;;;;;21.12;45.48;100165.75;5074527;28;20068;-68
2022/05/12 01:56:50;;;;;;;11.60;5.97;;;;;;;21.25;45.31;100170.91;5076465;28;20079;-68
2022/05/12 01:59:18;;;;;;;11.02;5.72;;;;;;;21.13;45.18;100176.41;5075390;28;20060;-68
2022/05/12 02:01:47;;;;;;;11.98;6.38;;;;;;;21.03;46.02;100157.09;5074644;28;20128;-68
2022/05/12 02:04:15;;;;;;;11.35;5.32;;;;;;;20.95;45.99;100149.31;5073992;28;20373;-68
2022/05/12 02:06:42;;;;;;;8.95;5.63;;;;;;;21.03;45.41;100168.00;5071516;28;20469;-69
2022/05/12 02:09:09;;;;;;;13.65;5.63;;;;;;;20.88;45.70;100184.88;5074585;28;20083;-69
2022/05/12 02:11:36;;;;;;;10.05;5.57;;;;;;;20.60;46.16;100207.47;5075042;28;20500;-69
2022/05/12 02:14:04;;;;;;;8.60;5.20;;;;;;;20.53;46.36;100214.94;5074445;28;20135;-69
2022/05/12 02:16:33;;;;;;;7.82;5.32;;;;;;;20.71;45.68;100216.69;5075720;28;20135;-69
2022/05/12 02:19:01;;;;;;;8.95;5.40;;;;;;;20.69;45.54;100210.63;5056747;28;20060;-69
2022/05/12 02:21:28;;;;;;;10.43;5.55;;;;;;;20.38;46.02;100228.16;5074267;28;20047;-69
2022/05/12 02:23:54;;;;;;;7.07;5.18;;;;;;;20.38;46.52;100247.25;5072098;28;20045;-69
2022/05/12 02:26:21;;;;;;;9.65;4.88;;;;;;;20.82;45.07;100217.72;5074941;28;20072;-69
2022/05/12 02:28:48;;;;;;;11.93;4.80;;;;;;;20.28;46.66;100244.28;5062123;28;20509;-69
2022/05/12 02:31:15;;;;;;;12.07;4.30;;;;;;;20.37;46.10;100246.41;5071522;28;20135;-69
2022/05/12 02:33:42;;;;;;;19.08;5.07;;;;;;;20.81;45.44;100241.44;5075549;28;20063;-69
2022/05/12 02:36:08;;;;;;;19.98;5.28;;;;;;;20.50;46.28;100244.56;5076865;28;20040;-69
2022/05/12 02:38:35;;;;;;;18.40;5.75;;;;;;;19.82;48.32;100281.25;5078015;28;20098;-69
2022/05/12 02:41:01;;;;;;;12.52;5.10;;;;;;;19.70;48.40;100283.94;5067913;28;20068;-68
2022/05/12 02:43:29;;;;;;;10.25;4.82;;;;;;;19.51;48.71;100280.41;5070259;28;20075;-68
2022/05/12 02:46:02;;;;;;;18.75;5.40;;;;;;;20.13;47.83;100278.25;5075899;28;20052;-69
2022/05/12 02:48:31;;;;;;;16.90;5.95;;;;;;;19.72;48.93;100276.38;5073338;28;20547;-69
2022/05/12 02:50:58;;;;;;;11.60;5.55;;;;;;;19.11;51.27;100280.91;5071537;28;20075;-69
2022/05/12 02:53:25;;;;;;;16.17;5.88;;;;;;;19.34;50.12;100280.19;5063826;28;20064;-69
2022/05/12 02:55:56;;;;;;;16.73;5.93;;;;;;;19.45;49.58;100254.97;5072440;28;20044;-69
2022/05/12 02:58:23;;;;;;;14.05;5.68;;;;;;;19.65;49.90;100240.22;5067529;28;20109;-68
2022/05/12 03:00:50;;;;;;;16.63;6.53;;;;;;;19.93;48.78;100247.78;5073577;28;20466;-68
2022/05/12 03:03:16;;;;;;;12.88;5.47;;;;;;;19.59;49.85;100243.88;5077330;28;20131;-69
2022/05/12 03:05:42;;;;;;;10.45;5.93;;;;;;;19.64;48.99;100236.69;5077282;28;20070;-68
2022/05/12 03:08:10;;;;;;;10.85;5.75;;;;;;;19.73;49.08;100245.38;5076434;28;20052;-68
2022/05/12 03:10:37;;;;;;;19.52;6.45;;;;;;;19.62;49.58;100259.72;5075552;28;20059;-68
2022/05/12 03:13:04;;;;;;;12.75;5.63;;;;;;;19.78;48.92;100269.19;5074632;28;20048;-68
2022/05/12 03:15:31;;;;;;;15.23;6.07;;;;;;;19.87;48.80;100256.91;5076034;28;20048;-69
2022/05/12 03:17:59;;;;;;;16.50;6.50;;;;;;;19.43;50.00;100262.50;5076736;28;20051;-69
2022/05/12 03:20:27;;;;;;;12.98;5.68;;;;;;;19.23;50.32;100267.38;5076196;28;20098;-69
2022/05/12 03:22:54;;;;;;;11.23;5.63;;;;;;;18.82;50.74;100282.44;5074138;28;20079;-69
2022/05/12 03:25:21;;;;;;;13.32;5.80;;;;;;;19.64;48.88;100288.38;5074408;28;20478;-69
2022/05/12 03:27:48;;;;;;;17.92;6.57;;;;;;;19.51;49.85;100302.16;5077851;28;20453;-69
2022/05/12 03:30:18;;;;;;;19.48;5.55;;;;;;;19.41;50.89;100294.53;5078721;28;20499;-68
2022/05/12 03:32:45;;;;;;;16.63;5.90;;;;;;;19.41;49.83;100291.81;5079098;28;20521;-68
2022/05/12 03:35:12;;;;;;;11.93;6.28;;;;;;;19.32;50.34;100292.38;5079271;28;20048;-68
2022/05/12 03:37:40;;;;;;;17.33;6.13;;;;;;;19.47;49.27;100290.91;5077917;28;20098;-68
2022/05/12 03:40:08;;;;;;;16.42;6.10;;;;;;;19.60;49.31;100294.53;5075998;28;20068;-68
2022/05/12 03:42:34;;;;;;;10.13;5.47;;;;;;;19.38;50.01;100286.88;5077158;28;20530;-68
2022/05/12 03:45:01;;;;;;;15.55;5.93;;;;;;;19.35;51.10;100287.31;5077618;28;20045;-69
2022/05/12 03:47:32;;;;;;;17.67;6.78;;;;;;;19.61;49.78;100293.47;5078578;28;20049;-69
2022/05/12 03:50:03;;;;;;;15.05;6.65;;;;;;;19.52;49.59;100292.97;5077904;28;20072;-69
2022/05/12 03:52:30;;;;;;;11.98;3.63;;;;;;;19.54;49.92;100296.25;5079298;28;20049;-69
2022/05/12 03:54:57;;;;;;;17.63;6.43;;;;;;;19.73;49.12;100294.38;5077528;28;20446;-69
2022/05/12 03:57:26;;;;;;;12.93;5.57;;;;;;;19.23;50.09;100294.56;5071833;28;20072;-69
2022/05/12 03:59:53;;;;;;;14.75;5.60;;;;;;;19.12;50.50;100315.19;5077461;28;20523;-69
2022/05/12 04:02:20;;;;;;;15.77;5.93;;;;;;;18.93;50.58;100327.97;5077552;28;20447;-70
2022/05/12 04:04:48;;;;;;;12.73;5.28;;;;;;;19.20;50.28;100341.25;5073938;28;20066;-69
2022/05/12 04:07:18;;;;;;;17.83;5.82;;;;;;;18.91;50.68;100340.91;5075103;28;20090;-69
2022/05/12 04:09:45;;;;;;;16.05;6.32;;;;;;;19.02;50.14;100340.19;5074767;28;20407;-69
2022/05/12 04:12:12;;;;;;;13.65;6.22;;;;;;;19.30;49.29;100344.28;5076843;28;20048;-69
2022/05/12 04:14:40;;;;;;;14.55;5.68;;;;;;;19.39;49.44;100348.38;5074965;28;20477;-68
2022/05/12 04:17:10;;;;;;;15.38;5.22;;;;;;;19.08;49.33;100357.50;5077419;28;20227;-70
2022/05/12 04:19:37;;;;;;;16.23;5.23;;;;;;;18.74;50.64;100358.84;5072854;28;21720;-70
2022/05/12 04:22:04;;;;;;;12.77;5.25;;;;;;;18.66;50.15;100359.97;5077494;28;20127;-70
2022/05/12 04:24:31;;;;;;;13.02;5.45;;;;;;;18.85;49.45;100349.94;5077022;28;20108;-70
2022/05/12 04:26:57;;;;;;;18.02;5.63;;;;;;;18.41;49.53;100357.25;5075614;28;20104;-70
2022/05/12 04:29:25;;;;;;;11.27;4.40;;;;;;;18.30;51.09;100377.78;5075944;28;20072;-70
2022/05/12 04:31:51;;;;;;;13.05;4.82;;;;;;;18.88;49.43;100378.59;5074987;28;20049;-70
2022/05/12 04:37:03;;;;;;;13.48;4.97;;;;;;;18.16;49.84;100380.81;5074974;28;20119;-69
2022/05/12 04:39:31;;;;;;;13.20;4.80;;;;;;;18.79;48.93;100392.47;5073992;28;20071;-70
2022/05/12 04:42:04;;;;;;;13.73;4.88;;;;;;;18.69;49.32;100392.13;5074450;28;20070;-70
2022/05/12 04:44:31;;;;;;;18.50;7.28;;;;;;;18.54;48.79;100400.59;5074382;28;20459;-69
2022/05/12 04:46:57;;;;;;;13.27;4.60;;;;;;;17.95;49.55;100398.22;5074793;28;20119;-70
2022/05/12 04:49:26;;;;;;;11.68;4.10;;;;;;;17.95;49.70;100398.22;5077589;28;20052;-71
2022/05/12 04:51:52;;;;;;;10.55;3.78;;;;;;;18.43;48.17;100412.16;5077217;28;20060;-70
2022/05/12 04:54:23;;;;;;;13.30;3.53;;;;;;;18.48;48.01;100409.66;5074551;28;20040;-69
2022/05/12 04:56:49;;;;;;;9.60;3.38;;;;;;;18.83;47.43;100430.91;5073750;28;20493;-70
2022/05/12 04:59:15;;;;;;;10.77;4.45;;;;;;;18.45;48.36;100439.97;5076469;28;20068;-69
2022/05/12 05:01:42;;;;;;;7.10;3.75;;;;;;;18.15;48.57;100437.00;5077110;28;20071;-70
2022/05/12 05:04:08;;;;;;;7.13;3.78;;;;;;;18.12;48.57;100442.81;5075640;28;20499;-70
2022/05/12 05:06:35;;;;;;;9.45;3.78;;;;;;;18.41;47.42;100446.03;5066251;28;20508;-70
2022/05/12 05:09:02;;;;;;;11.18;3.83;;;;;;;17.90;47.47;100449.63;5075703;28;20067;-70
2022/05/12 05:11:37;;;;;;;13.45;3.28;;;;;;;18.24;46.98;100464.75;5066789;28;20080;-70
2022/05/12 05:14:05;;;;;;;11.60;3.67;;;;;;;18.32;46.15;100480.78;5074317;28;20082;-70
2022/05/12 05:16:31;;;;;;;5.22;3.03;;;;;;;18.61;46.00;100484.75;5077305;28;20507;-70
2022/05/12 05:18:58;;;;;;;7.72;3.22;;;;;;;18.95;44.57;100488.94;5076724;28;20040;-69
2022/05/12 05:21:24;;;;;;;10.63;3.30;;;;;;;18.53;45.88;100485.88;5076062;28;20135;-70
2022/05/12 05:23:51;;;;;;;7.07;3.00;;;;;;;18.22;45.99;100483.13;5076228;28;20471;-70
2022/05/12 05:26:18;;;;;;;7.85;2.70;;;;;;;18.58;45.62;100501.50;5075861;28;20048;-70
2022/05/12 05:28:45;;;;;;;11.88;3.45;;;;;;;18.40;45.83;100504.94;5076442;28;20036;-70
2022/05/12 05:31:12;;;;;;;15.40;3.22;;;;;;;18.26;46.21;100508.78;5066433;28;20063;-70
2022/05/12 05:33:38;;;;;;;12.18;3.00;;;;;;;18.03;44.83;100506.53;5075381;28;20076;-70
2022/05/12 05:36:05;;;;;;;13.00;2.58;;;;;;;18.20;44.32;100525.94;5074407;28;20471;-70
2022/05/12 05:38:31;;;;;;;6.22;2.20;;;;;;;18.00;42.89;100524.13;5075258;28;20040;-70
2022/05/12 05:40:58;;;;;;;6.40;1.88;;;;;;;18.56;41.20;100547.09;5074271;28;20115;-69
2022/05/12 05:43:26;;;;;;;11.05;2.22;;;;;;;18.77;40.97;100551.34;5072863;28;20136;-70
2022/05/12 05:45:53;;;;;;;6.03;1.90;;;;;;;18.23;41.42;100560.81;5074142;28;20067;-70
2022/05/12 05:48:19;;;;;;;9.52;1.90;;;;;;;17.91;41.16;100560.66;5074757;28;20044;-70
2022/05/12 05:53:35;;;;;;;7.75;1.48;;;;;;;18.32;39.60;100589.41;5074276;28;20465;-69
2022/05/12 05:56:04;;;;;;;7.32;1.65;;;;;;;17.67;40.27;100604.75;5075966;28;20048;-69
2022/05/12 05:58:31;;;;;;;3.92;1.50;;;;;;;17.96;39.91;100598.88;5077552;28;20131;-70
2022/05/12 06:00:58;;;;;;;20.08;2.10;;;;;;;18.15;39.62;100601.78;5075760;28;20044;-70
2022/05/12 06:03:25;;;;;;;5.60;1.35;;;;;;;18.36;39.02;100615.06;5077680;28;20048;-70
2022/05/12 06:05:53;;;;;;;9.80;1.65;;;;;;;18.33;38.92;100615.50;5075392;28;20508;-70
2022/05/12 06:08:20;;;;;;;8.52;1.77;;;;;;;18.44;39.19;100622.16;5077475;28;20074;-70
2022/05/12 06:10:55;;;;;;;7.32;1.38;;;;;;;17.55;40.04;100627.09;5073424;28;20041;-70
2022/05/12 06:13:21;;;;;;;7.90;1.77;;;;;;;18.16;38.87;100633.31;5076475;28;20056;-70
2022/05/12 06:15:49;;;;;;;6.22;1.40;;;;;;;18.38;38.93;100639.31;5077216;28;20128;-70
2022/05/12 06:18:17;;;;;;;6.35;1.50;;;;;;;18.01;39.75;100657.94;5073915;28;20080;-69
2022/05/12 06:20:47;;;;;;;10.07;1.90;;;;;;;18.04;39.43;100652.94;5074618;28;20064;-69
2022/05/12 06:23:14;;;;;;;9.32;1.58;;;;;;;18.14;38.58;100670.69;5072742;28;20472;-69
2022/05/12 06:25:41;;;;;;;4.70;1.20;;;;;;;18.46;37.67;100664.34;5071991;28;20052;-69
2022/05/12 06:28:08;;;;;;;5.55;1.80;;;;;;;18.12;38.09;100681.72;5074260;28;20072;-70
2022/05/12 06:30:35;;;;;;;10.98;3.70;;;;;;;18.55;37.50;100692.97;5073426;28;20104;-70
2022/05/12 06:33:01;;;;;;;4.82;1.17;;;;;;;18.80;37.46;100703.13;5056975;28;20528;-69
2022/05/12 06:35:28;;;;;;;12.15;1.50;;;;;;;18.76;37.74;100700.00;5073145;28;20219;-69
2022/05/12 06:37:54;;;;;;;25.42;2.13;;;;;;;18.43;37.56;100704.69;5073845;28;20078;-70
2022/05/12 06:40:22;;;;;;;9.43;1.77;;;;;;;18.25;37.74;100705.34;5075691;28;20075;-70
2022/05/12 06:42:50;;;;;;;4.20;1.45;;;;;;;18.33;37.39;100718.69;5073924;28;20120;-69
2022/05/12 06:45:20;;;;;;;3.40;1.10;;;;;;;18.44;37.09;100730.78;5076758;28;20090;-69
2022/05/12 06:47:51;;;;;;;4.75;0.98;;;;;;;18.57;37.23;100732.66;5075406;28;20127;-69
2022/05/12 06:50:21;;;;;;;11.13;0.70;;;;;;;19.02;36.41;100737.13;5074995;28;20127;-69
2022/05/12 06:52:49;;;;;;;6.25;1.05;;;;;;;18.84;36.57;100745.13;5074255;28;20070;-69
2022/05/12 06:55:15;;;;;;;5.50;1.33;;;;;;;18.99;36.35;100745.72;5074544;28;20102;-70
2022/05/12 06:57:42;;;;;;;7.22;1.23;;;;;;;19.35;35.63;100760.63;5072579;28;20123;-69
2022/05/12 07:00:10;;;;;;;6.10;1.02;;;;;;;19.63;35.17;100765.69;5074815;28;20049;-69
2022/05/12 07:02:38;;;;;;;7.95;1.73;;;;;;;19.35;35.65;100767.97;5072461;28;20496;-70
2022/05/12 07:05:08;;;;;;;6.15;1.02;;;;;;;19.99;34.35;100785.16;5074321;28;20037;-69
2022/05/12 07:07:35;;;;;;;13.43;1.35;;;;;;;20.57;33.73;100787.63;5075336;28;20045;-70
2022/05/12 07:10:03;;;;;;;5.07;1.05;;;;;;;20.38;34.07;100792.97;5073266;28;20386;-69
2022/05/12 07:12:29;;;;;;;6.47;1.25;;;;;;;20.14;33.55;100796.53;5074382;28;20079;-69
2022/05/12 07:14:56;;;;;;;7.60;1.25;;;;;;;20.31;33.47;100807.72;5075359;28;20068;-69
2022/05/12 07:17:22;;;;;;;9.18;1.90;;;;;;;20.60;33.19;100803.53;5075205;28;20203;-69
2022/05/12 07:19:49;;;;;;;4.20;1.00;;;;;;;20.17;33.78;100809.72;5074850;28;20489;-70
2022/05/12 07:27:47;;;;;;;6.82;0.80;;;;;;;19.73;34.81;100825.13;5056238;28;20123;-70
2022/05/12 07:30:13;;;;;;;3.70;0.90;;;;;;;19.61;34.90;100829.53;5075121;28;20052;-70
2022/05/12 07:32:40;;;;;;;10.07;1.50;;;;;;;19.35;35.33;100850.41;5069275;28;20076;-70
2022/05/12 07:35:08;;;;;;;11.05;1.08;;;;;;;19.10;36.10;100861.13;5075323;28;20127;-69
2022/05/12 07:37:34;;;;;;;10.50;1.02;;;;;;;19.25;35.25;100866.34;5074027;28;20132;-69
2022/05/12 07:40:01;;;;;;;7.97;1.00;;;;;;;19.42;34.47;100861.25;5072900;28;20131;-69
2022/05/12 07:42:29;;;;;;;4.75;0.80;;;;;;;21.07;31.89;100877.47;5070284;28;20044;-69
2022/05/12 07:44:56;;;;;;;3.85;0.70;;;;;;;20.58;32.46;100880.03;5074712;28;20044;-70
2022/05/12 07:47:22;;;;;;;5.32;0.82;;;;;;;20.32;33.09;100885.69;5074131;28;20116;-69
2022/05/12 07:49:49;;;;;;;9.68;0.88;;;;;;;20.22;32.47;100902.53;5075951;28;20064;-70
2022/05/12 07:52:15;;;;;;;3.88;1.00;;;;;;;20.79;31.77;100906.06;5076300;28;20048;-70
2022/05/12 07:54:42;;;;;;;6.13;0.70;;;;;;;20.72;31.86;100909.91;5076866;28;20091;-69
2022/05/12 07:57:09;;;;;;;5.32;0.90;;;;;;;21.16;30.64;100913.53;5077423;28;20048;-69
2022/05/12 07:59:40;;;;;;;5.63;1.13;;;;;;;21.83;30.01;100923.44;5075775;28;20044;-69
2022/05/12 08:02:06;;;;;;;5.38;1.13;;;;;;;21.41;30.31;100922.47;5075600;28;20048;-69
2022/05/12 08:04:35;;;;;;;8.32;1.10;;;;;;;21.38;30.67;100922.94;5077357;28;20094;-69
2022/05/12 08:07:01;;;;;;;10.63;0.93;;;;;;;20.73;30.70;100936.97;5078976;28;20068;-69
2022/05/12 08:09:28;;;;;;;3.75;0.70;;;;;;;21.45;29.30;100937.34;5077658;28;20044;-69
2022/05/12 08:11:54;;;;;;;4.95;0.98;;;;;;;21.98;28.60;100950.38;5078571;28;20048;-70
2022/05/12 08:14:21;;;;;;;3.28;0.70;;;;;;;22.56;27.83;100951.66;5079302;28;20492;-70
2022/05/12 08:16:47;;;;;;;8.82;1.10;;;;;;;22.63;27.58;100960.59;5075446;28;22123;-69
2022/05/12 08:19:14;;;;;;;2.97;0.73;;;;;;;22.28;28.03;100958.56;5076905;28;20041;-70
2022/05/12 08:21:41;;;;;;;3.42;1.38;;;;;;;21.81;28.62;100961.09;5076664;28;20124;-70
2022/05/12 08:24:07;;;;;;;4.32;1.00;;;;;;;22.22;27.93;100967.72;5077996;28;20484;-70
2022/05/12 08:26:34;;;;;;;5.72;1.25;;;;;;;22.56;27.54;100971.63;5077034;28;20108;-69
2022/05/12 08:29:00;;;;;;;2.55;0.80;;;;;;;24.09;25.96;100977.09;5077411;28;20040;-68
2022/05/12 08:31:30;;;;;;;6.72;0.77;;;;;;;23.82;25.94;100976.81;5078635;28;20068;-69
2022/05/12 08:33:58;;;;;;;5.70;0.80;;;;;;;22.59;27.57;100991.38;5076330;28;20044;-68
2022/05/12 08:36:27;;;;;;;5.28;0.90;;;;;;;21.70;28.75;100983.69;5072049;28;20365;-68
2022/05/12 08:38:54;;;;;;;3.72;0.95;;;;;;;22.47;27.32;100989.44;5077384;28;20120;-69
2022/05/12 08:41:46;;;;;;;9.63;1.35;;;;;;;22.68;27.05;101001.75;5079165;28;20060;-70
2022/05/12 08:44:14;;;;;;;6.20;0.85;;;;;;;23.29;26.45;100996.97;5076686;28;20092;-69
2022/05/12 08:46:56;;;;;;;4.38;1.20;;;;;;;23.41;26.17;100994.22;5076310;28;20045;-69
2022/05/12 08:49:30;;;;;;;11.55;0.93;;;;;;;23.01;25.93;101008.56;5077628;28;20067;-69
2022/05/12 08:52:22;;;;;;;2.80;0.65;;;;;;;23.11;25.71;101019.78;5077185;28;20114;-70
2022/05/12 08:54:53;;;;;;;;;;;;;;;24.37;24.47;101016.50;5043672;28;20064;-68
2022/05/12 08:57:33;;;;;;;5.30;1.33;;;;;;;25.73;23.06;101018.25;5076339;28;19920;-71
2022/05/12 09:00:06;;;;;;;2.03;0.68;;;;;;;25.79;23.37;101014.47;5075739;28;20075;-70
2022/05/12 09:03:07;;;;;;;6.00;1.10;;;;;;;23.80;24.19;101028.25;5076587;28;20127;-68
2022/05/12 09:05:43;;;;;;;3.60;1.02;;;;;;;24.56;23.27;101020.75;5075809;28;20060;-69
2022/05/12 09:08:35;;;;;;;4.53;1.08;;;;;;;25.88;21.82;101025.88;5074276;28;20068;-69
2022/05/12 09:11:18;;;;;;;8.07;1.23;;;;;;;24.26;23.42;101036.59;5074291;28;20413;-68
2022/05/12 09:13:48;;;;;;;6.95;1.00;;;;;;;24.91;23.54;101034.25;5074949;28;20079;-69
2022/05/12 09:16:32;;;;;;;3.97;0.90;;;;;;;23.65;25.41;101042.44;5073602;28;20051;-69
2022/05/12 09:19:00;;;;;;;7.15;2.10;;;;;;;23.76;25.31;101046.25;5075750;28;20044;-68
2022/05/12 09:21:29;;;;;;;2.63;0.98;;;;;;;24.11;24.95;101053.56;5075236;28;20068;-70
2022/05/12 09:23:57;;;;;;;5.70;1.17;;;;;;;24.26;24.29;101050.28;5064383;28;20040;-70
2022/05/12 09:26:33;;;;;;;6.60;2.03;;;;;;;22.65;26.18;101064.28;5069798;28;20113;-69
2022/05/12 09:29:14;;;;;;;7.93;1.80;;;;;;;23.23;24.91;101071.84;5072817;28;20048;-69
2022/05/12 09:31:43;;;;;;;4.47;0.88;;;;;;;23.45;24.48;101080.28;5073916;28;20067;-70
2022/05/12 09:34:16;;;;;;;5.22;1.42;;;;;;;24.17;23.91;101074.53;5072976;28;20040;-70
2022/05/12 09:36:42;;;;;;;3.05;0.98;;;;;;;25.32;22.46;101064.34;5056575;28;20049;-69
2022/05/12 09:39:10;;;;;;;5.75;1.00;;;;;;;24.82;22.86;101068.69;5072492;28;20047;-69
2022/05/12 09:41:41;;;;;;;4.10;1.10;;;;;;;23.51;24.28;101068.41;5071600;28;20052;-69
2022/05/12 09:44:21;;;;;;;7.78;1.60;;;;;;;23.92;24.85;101064.69;5069905;28;20108;-69
2022/05/12 09:47:13;;;;;;;7.93;1.80;;;;;;;22.50;26.88;101078.38;5062175;28;20070;-68
2022/05/12 09:49:41;;;;;;;4.45;1.30;;;;;;;22.97;25.78;101082.09;5071179;28;20107;-68
2022/05/12 09:52:18;;;;;;;6.53;1.58;;;;;;;23.31;25.10;101074.22;5071069;28;20484;-69
2022/05/12 09:54:45;;;;;;;7.10;1.00;;;;;;;23.57;23.43;101085.75;5073673;28;20049;-69
2022/05/12 09:57:26;;;;;;;5.57;0.90;;;;;;;24.05;22.91;101080.03;5075190;28;20044;-69
2022/05/12 09:59:56;;;;;;;2.80;1.08;;;;;;;23.99;22.47;101078.28;5074623;28;20044;-69
2022/05/12 10:08:30;;;;;;;4.10;1.33;;;;;;;24.09;22.88;101070.28;5071644;28;20043;-70
2022/05/12 10:11:04;;;;;;;2.65;1.00;;;;;;;23.53;23.87;101065.41;5056857;28;20078;-69
2022/05/12 10:13:46;;;;;;;4.60;1.27;;;;;;;23.01;24.65;101066.88;5073197;28;20076;-71
2022/05/12 10:16:18;;;;;;;8.73;1.55;;;;;;;22.47;25.27;101073.38;5073634;28;20090;-69
2022/05/12 10:18:51;;;;;;;2.50;1.20;;;;;;;23.85;24.02;101072.22;5073575;28;20074;-70
2022/05/12 10:21:36;;;;;;;4.55;0.98;;;;;;;24.98;22.59;101072.53;5062744;28;20056;-70
2022/05/12 10:24:27;;;;;;;5.70;0.90;;;;;;;23.97;23.18;101066.72;5072397;28;20481;-69
2022/05/12 10:27:02;;;;;;;13.05;1.13;;;;;;;26.23;20.65;101072.25;5071381;28;20037;-70
2022/05/12 10:29:55;;;;;;;3.53;0.98;;;;;;;25.57;20.11;101078.44;5071679;28;20135;-69
2022/05/12 10:32:50;;;;;;;5.65;1.55;;;;;;;24.14;22.60;101078.59;5071199;28;20123;-69
2022/05/12 10:35:31;;;;;;;5.70;1.25;;;;;;;23.57;23.86;101089.31;5071413;28;20553;-70
2022/05/12 10:38:05;;;;;;;;;;;;;;;24.21;23.14;101079.28;5071659;28;20487;-69
2022/05/12 10:40:53;;;;;;;2.53;0.80;;;;;;;24.26;23.61;101084.03;5071593;28;19921;-69
2022/05/12 10:43:39;;;;;;;3.15;1.13;;;;;;;25.21;22.63;101070.75;5053988;28;20048;-70
2022/05/12 10:46:17;;;;;;;3.00;1.05;;;;;;;24.66;23.42;101075.81;5072270;28;20127;-71
2022/05/12 10:48:54;;;;;;;3.10;1.13;;;;;;;24.13;23.02;101087.91;5072446;28;20484;-70
2022/05/12 10:51:32;;;;;;;4.43;1.35;;;;;;;24.20;23.29;101085.84;5071669;28;20048;-70
2022/05/12 10:54:14;;;;;;;4.82;1.30;;;;;;;24.26;23.52;101097.72;5074643;28;20044;-70
2022/05/12 10:57:04;;;;;;;5.95;1.02;;;;;;;24.02;23.57;101091.47;5072896;28;20158;-70
2022/05/12 10:59:38;;;;;;;5.15;1.15;;;;;;;23.29;23.80;101089.19;5075882;28;20083;-71
2022/05/12 11:02:19;;;;;;;4.30;0.90;;;;;;;23.71;23.75;101087.19;5074085;28;20040;-70
2022/05/12 11:04:55;;;;;;;10.60;3.30;;;;;;;22.90;24.83;101094.22;5074357;28;20106;-70
2022/05/12 11:07:35;;;;;;;8.52;3.08;;;;;;;23.55;24.64;101093.41;5074094;28;20098;-69
2022/05/12 11:10:34;;;;;;;4.80;1.23;;;;;;;23.72;24.09;101097.91;5073559;28;20067;-70
2022/05/12 11:13:22;;;;;;;7.85;1.38;;;;;;;23.57;23.81;101091.25;5073641;28;20500;-70
2022/05/12 11:15:57;;;;;;;5.43;1.10;;;;;;;24.24;23.49;101090.84;5074335;28;20124;-69
2022/05/12 11:18:31;;;;;;;6.38;1.02;;;;;;;24.59;23.36;101088.84;5072505;28;20114;-70
2022/05/12 11:21:05;;;;;;;5.50;1.30;;;;;;;24.54;22.70;101093.38;5074249;28;20068;-70
2022/05/12 11:23:44;;;;;;;6.15;1.10;;;;;;;24.11;22.57;101090.03;5077333;28;20068;-70
2022/05/12 11:26:31;;;;;;;4.03;0.77;;;;;;;24.90;21.95;101097.66;5079451;28;20090;-71
2022/05/12 11:29:44;;;;;;;2.45;0.73;;;;;;;24.90;21.79;101097.66;5081002;28;20060;-70
2022/05/12 11:32:38;;;;;;;4.03;0.90;;;;;;;24.65;21.74;101092.53;5079506;28;20098;-69
2022/05/12 11:35:21;;;;;;;4.53;1.02;;;;;;;24.76;21.21;101102.59;5079987;28;20060;-70
2022/05/12 11:37:50;;;;;;;3.75;1.25;;;;;;;24.64;21.20;101099.91;5062222;28;20060;-71
2022/05/12 11:40:48;;;;;;;4.13;1.15;;;;;;;24.76;21.32;101101.78;5078126;28;20060;-70
2022/05/12 11:46:49;;;;;;;5.68;0.98;;;;;;;24.71;21.53;101107.16;5076203;28;20049;-71
2022/05/12 11:49:19;;;;;;;4.75;0.88;;;;;;;24.39;22.27;101099.41;5076342;28;20078;-71
2022/05/12 11:51:54;;;;;;;2.60;0.85;;;;;;;23.80;23.01;101102.22;5073204;28;20381;-71
2022/05/12 11:54:34;;;;;;;2.55;0.95;;;;;;;22.96;23.25;101115.16;5076800;28;20114;-69
2022/05/12 11:57:04;;;;;;;3.45;1.30;;;;;;;22.68;23.83;101107.56;5077390;28;20156;-69